sensor_id;sensor_type;location;lat;lon;timestamp;P1;durP1;ratioP1;P2;durP2;ratioP2
75823;SDS011;64457;51.976;9.834;2023-04-15T00:01:35;22.60;;;12.60;;
75823;SDS011;64457;51.976;9.834;2023-04-15T00:04:09;22.00;;;12.27;;
75823;SDS011;64457;51.976;9.834;2023-04-15T00:06:40;24.30;;;13.57;;
75823;SDS011;64457;51.976;9.834;2023-04-15T00:09:09;24.93;;;14.07;;
75823;SDS011;64457;51.976;9.834;2023-04-15T00:11:40;19.67;;;12.13;;
75823;SDS011;64457;51.976;9.834;2023-04-15T00:14:13;25.03;;;12.77;;
75823;SDS011;64457;51.976;9.834;2023-04-15T00:16:43;25.87;;;13.03;;
75823;SDS011;64457;51.976;9.834;2023-04-15T00:19:22;25.67;;;13.23;;
75823;SDS011;64457;51.976;9.834;2023-04-15T00:25:15;28.30;;;15.20;;
75823;SDS011;64457;51.976;9.834;2023-04-15T00:27:53;28.30;;;15.40;;
75823;SDS011;64457;51.976;9.834;2023-04-15T00:30:24;28.30;;;16.20;;
75823;SDS011;64457;51.976;9.834;2023-04-15T00:36:21;28.40;;;15.50;;
75823;SDS011;64457;51.976;9.834;2023-04-15T00:38:56;27.80;;;16.37;;
75823;SDS011;64457;51.976;9.834;2023-04-15T00:41:26;25.60;;;15.37;;
75823;SDS011;64457;51.976;9.834;2023-04-15T00:47:47;29.03;;;15.90;;
75823;SDS011;64457;51.976;9.834;2023-04-15T00:51:13;26.90;;;16.10;;
75823;SDS011;64457;51.976;9.834;2023-04-15T00:53:53;29.93;;;15.93;;
75823;SDS011;64457;51.976;9.834;2023-04-15T00:59:54;27.37;;;15.03;;
75823;SDS011;64457;51.976;9.834;2023-04-15T01:02:49;25.30;;;15.17;;
75823;SDS011;64457;51.976;9.834;2023-04-15T01:05:33;27.03;;;15.20;;
75823;SDS011;64457;51.976;9.834;2023-04-15T01:08:15;26.17;;;14.57;;
75823;SDS011;64457;51.976;9.834;2023-04-15T01:10:46;24.23;;;14.77;;
75823;SDS011;64457;51.976;9.834;2023-04-15T01:13:36;24.70;;;13.97;;
75823;SDS011;64457;51.976;9.834;2023-04-15T01:16:38;29.90;;;14.47;;
75823;SDS011;64457;51.976;9.834;2023-04-15T01:19:18;25.17;;;14.80;;
75823;SDS011;64457;51.976;9.834;2023-04-15T01:22:26;24.90;;;14.80;;
75823;SDS011;64457;51.976;9.834;2023-04-15T01:24:59;23.63;;;14.00;;
75823;SDS011;64457;51.976;9.834;2023-04-15T01:28:14;25.90;;;15.10;;
75823;SDS011;64457;51.976;9.834;2023-04-15T01:31:10;25.50;;;14.80;;
75823;SDS011;64457;51.976;9.834;2023-04-15T01:34:13;25.93;;;15.23;;
75823;SDS011;64457;51.976;9.834;2023-04-15T01:36:50;26.50;;;16.00;;
75823;SDS011;64457;51.976;9.834;2023-04-15T01:39:51;26.27;;;15.90;;
75823;SDS011;64457;51.976;9.834;2023-04-15T01:43:12;28.37;;;16.27;;
75823;SDS011;64457;51.976;9.834;2023-04-15T01:45:51;28.77;;;16.13;;
75823;SDS011;64457;51.976;9.834;2023-04-15T01:51:12;25.20;;;15.23;;
75823;SDS011;64457;51.976;9.834;2023-04-15T01:53:47;27.10;;;16.00;;
75823;SDS011;64457;51.976;9.834;2023-04-15T01:56:15;26.57;;;15.10;;
75823;SDS011;64457;51.976;9.834;2023-04-15T01:58:56;24.10;;;14.63;;
75823;SDS011;64457;51.976;9.834;2023-04-15T02:01:38;25.60;;;14.40;;
75823;SDS011;64457;51.976;9.834;2023-04-15T02:04:09;24.23;;;14.90;;
75823;SDS011;64457;51.976;9.834;2023-04-15T02:06:45;25.23;;;14.60;;
75823;SDS011;64457;51.976;9.834;2023-04-15T02:12:41;24.73;;;13.60;;
75823;SDS011;64457;51.976;9.834;2023-04-15T02:18:58;25.77;;;13.27;;
75823;SDS011;64457;51.976;9.834;2023-04-15T02:21:27;23.80;;;14.07;;
75823;SDS011;64457;51.976;9.834;2023-04-15T02:23:56;26.20;;;14.30;;
75823;SDS011;64457;51.976;9.834;2023-04-15T02:26:25;25.57;;;13.83;;
75823;SDS011;64457;51.976;9.834;2023-04-15T02:29:02;23.93;;;13.90;;
75823;SDS011;64457;51.976;9.834;2023-04-15T02:35:17;23.23;;;13.50;;
75823;SDS011;64457;51.976;9.834;2023-04-15T02:40:42;23.53;;;13.67;;
75823;SDS011;64457;51.976;9.834;2023-04-15T02:43:12;24.40;;;13.50;;
75823;SDS011;64457;51.976;9.834;2023-04-15T02:45:42;22.20;;;12.93;;
75823;SDS011;64457;51.976;9.834;2023-04-15T02:48:25;23.60;;;13.47;;
75823;SDS011;64457;51.976;9.834;2023-04-15T02:51:44;22.10;;;12.90;;
75823;SDS011;64457;51.976;9.834;2023-04-15T02:55:40;24.20;;;12.57;;
75823;SDS011;64457;51.976;9.834;2023-04-15T02:59:01;22.73;;;12.70;;
75823;SDS011;64457;51.976;9.834;2023-04-15T03:01:57;24.40;;;13.10;;
75823;SDS011;64457;51.976;9.834;2023-04-15T03:04:28;24.30;;;14.37;;
75823;SDS011;64457;51.976;9.834;2023-04-15T03:06:56;23.20;;;13.30;;
75823;SDS011;64457;51.976;9.834;2023-04-15T03:09:34;23.33;;;13.43;;
75823;SDS011;64457;51.976;9.834;2023-04-15T03:12:41;27.50;;;13.53;;
75823;SDS011;64457;51.976;9.834;2023-04-15T03:15:45;23.27;;;13.27;;
75823;SDS011;64457;51.976;9.834;2023-04-15T03:21:31;24.03;;;14.63;;
75823;SDS011;64457;51.976;9.834;2023-04-15T03:27:32;27.00;;;14.67;;
75823;SDS011;64457;51.976;9.834;2023-04-15T03:30:46;25.20;;;14.20;;
75823;SDS011;64457;51.976;9.834;2023-04-15T03:33:14;25.60;;;13.60;;
75823;SDS011;64457;51.976;9.834;2023-04-15T03:39:44;25.83;;;14.20;;
75823;SDS011;64457;51.976;9.834;2023-04-15T03:43:12;28.43;;;14.73;;
75823;SDS011;64457;51.976;9.834;2023-04-15T03:46:52;26.67;;;14.87;;
75823;SDS011;64457;51.976;9.834;2023-04-15T03:50:23;26.80;;;14.40;;
75823;SDS011;64457;51.976;9.834;2023-04-15T03:53:09;28.67;;;15.00;;
75823;SDS011;64457;51.976;9.834;2023-04-15T03:55:51;24.30;;;13.80;;
75823;SDS011;64457;51.976;9.834;2023-04-15T03:58:22;28.17;;;14.53;;
75823;SDS011;64457;51.976;9.834;2023-04-15T04:00:50;30.33;;;14.70;;
75823;SDS011;64457;51.976;9.834;2023-04-15T04:03:20;28.33;;;15.53;;
75823;SDS011;64457;51.976;9.834;2023-04-15T04:05:52;30.03;;;16.00;;
75823;SDS011;64457;51.976;9.834;2023-04-15T04:08:21;29.87;;;15.40;;
75823;SDS011;64457;51.976;9.834;2023-04-15T04:10:54;27.90;;;14.60;;
75823;SDS011;64457;51.976;9.834;2023-04-15T04:13:21;31.20;;;16.10;;
75823;SDS011;64457;51.976;9.834;2023-04-15T04:15:49;33.43;;;16.80;;
75823;SDS011;64457;51.976;9.834;2023-04-15T04:18:21;32.83;;;16.60;;
75823;SDS011;64457;51.976;9.834;2023-04-15T04:21:01;33.23;;;16.50;;
75823;SDS011;64457;51.976;9.834;2023-04-15T04:23:41;32.33;;;16.40;;
75823;SDS011;64457;51.976;9.834;2023-04-15T04:26:46;36.90;;;17.40;;
75823;SDS011;64457;51.976;9.834;2023-04-15T04:29:32;34.63;;;16.63;;
75823;SDS011;64457;51.976;9.834;2023-04-15T04:32:00;35.50;;;17.87;;
75823;SDS011;64457;51.976;9.834;2023-04-15T04:34:28;35.50;;;18.20;;
75823;SDS011;64457;51.976;9.834;2023-04-15T04:36:56;32.37;;;16.20;;
75823;SDS011;64457;51.976;9.834;2023-04-15T04:39:26;34.90;;;17.20;;
75823;SDS011;64457;51.976;9.834;2023-04-15T04:41:53;35.33;;;17.93;;
75823;SDS011;64457;51.976;9.834;2023-04-15T04:44:29;36.80;;;17.37;;
75823;SDS011;64457;51.976;9.834;2023-04-15T04:46:56;34.90;;;17.10;;
75823;SDS011;64457;51.976;9.834;2023-04-15T04:49:24;37.33;;;18.33;;
75823;SDS011;64457;51.976;9.834;2023-04-15T04:51:52;36.23;;;16.93;;
75823;SDS011;64457;51.976;9.834;2023-04-15T04:54:19;41.47;;;18.00;;
75823;SDS011;64457;51.976;9.834;2023-04-15T04:56:49;35.73;;;18.20;;
75823;SDS011;64457;51.976;9.834;2023-04-15T04:59:17;36.60;;;16.67;;
75823;SDS011;64457;51.976;9.834;2023-04-15T05:01:44;37.50;;;17.50;;
75823;SDS011;64457;51.976;9.834;2023-04-15T05:04:12;37.73;;;18.40;;
75823;SDS011;64457;51.976;9.834;2023-04-15T05:06:40;37.90;;;18.93;;
75823;SDS011;64457;51.976;9.834;2023-04-15T05:09:08;40.37;;;19.87;;
75823;SDS011;64457;51.976;9.834;2023-04-15T05:11:36;39.90;;;18.70;;
75823;SDS011;64457;51.976;9.834;2023-04-15T05:14:07;41.73;;;19.20;;
75823;SDS011;64457;51.976;9.834;2023-04-15T05:16:35;40.70;;;18.67;;
75823;SDS011;64457;51.976;9.834;2023-04-15T05:19:03;37.30;;;17.60;;
75823;SDS011;64457;51.976;9.834;2023-04-15T05:21:31;43.63;;;19.80;;
75823;SDS011;64457;51.976;9.834;2023-04-15T05:24:00;38.30;;;18.90;;
75823;SDS011;64457;51.976;9.834;2023-04-15T05:26:27;42.40;;;20.50;;
75823;SDS011;64457;51.976;9.834;2023-04-15T05:28:55;39.40;;;19.13;;
75823;SDS011;64457;51.976;9.834;2023-04-15T05:31:25;47.70;;;20.10;;
75823;SDS011;64457;51.976;9.834;2023-04-15T05:33:52;42.60;;;20.57;;
75823;SDS011;64457;51.976;9.834;2023-04-15T05:36:20;41.10;;;19.17;;
75823;SDS011;64457;51.976;9.834;2023-04-15T05:38:48;46.13;;;21.77;;
75823;SDS011;64457;51.976;9.834;2023-04-15T05:41:16;43.87;;;21.30;;
75823;SDS011;64457;51.976;9.834;2023-04-15T05:44:00;47.33;;;21.50;;
75823;SDS011;64457;51.976;9.834;2023-04-15T05:46:39;43.43;;;21.40;;
75823;SDS011;64457;51.976;9.834;2023-04-15T05:49:07;43.47;;;20.67;;
75823;SDS011;64457;51.976;9.834;2023-04-15T05:51:36;47.23;;;22.60;;
75823;SDS011;64457;51.976;9.834;2023-04-15T05:54:04;45.90;;;22.50;;
75823;SDS011;64457;51.976;9.834;2023-04-15T05:56:32;51.23;;;23.60;;
75823;SDS011;64457;51.976;9.834;2023-04-15T05:59:00;49.27;;;22.40;;
75823;SDS011;64457;51.976;9.834;2023-04-15T06:04:29;48.37;;;21.77;;
75823;SDS011;64457;51.976;9.834;2023-04-15T06:06:57;46.93;;;22.93;;
75823;SDS011;64457;51.976;9.834;2023-04-15T06:09:25;49.10;;;23.30;;
75823;SDS011;64457;51.976;9.834;2023-04-15T06:11:53;46.37;;;22.27;;
75823;SDS011;64457;51.976;9.834;2023-04-15T06:14:22;45.73;;;22.27;;
75823;SDS011;64457;51.976;9.834;2023-04-15T06:16:57;48.73;;;23.37;;
75823;SDS011;64457;51.976;9.834;2023-04-15T06:19:25;43.50;;;21.70;;
75823;SDS011;64457;51.976;9.834;2023-04-15T06:21:52;46.37;;;21.70;;
75823;SDS011;64457;51.976;9.834;2023-04-15T06:24:20;48.77;;;23.60;;
75823;SDS011;64457;51.976;9.834;2023-04-15T06:26:48;41.33;;;20.10;;
75823;SDS011;64457;51.976;9.834;2023-04-15T06:29:17;43.67;;;20.33;;
75823;SDS011;64457;51.976;9.834;2023-04-15T06:31:46;37.37;;;18.47;;
75823;SDS011;64457;51.976;9.834;2023-04-15T06:34:15;37.10;;;18.07;;
75823;SDS011;64457;51.976;9.834;2023-04-15T06:36:47;42.60;;;19.40;;
75823;SDS011;64457;51.976;9.834;2023-04-15T06:39:15;32.67;;;16.83;;
75823;SDS011;64457;51.976;9.834;2023-04-15T06:41:43;35.07;;;16.70;;
75823;SDS011;64457;51.976;9.834;2023-04-15T06:44:11;38.87;;;17.30;;
75823;SDS011;64457;51.976;9.834;2023-04-15T06:46:40;32.47;;;14.97;;
75823;SDS011;64457;51.976;9.834;2023-04-15T06:49:08;33.37;;;15.70;;
75823;SDS011;64457;51.976;9.834;2023-04-15T06:51:38;38.20;;;18.33;;
75823;SDS011;64457;51.976;9.834;2023-04-15T06:54:23;32.20;;;15.67;;
75823;SDS011;64457;51.976;9.834;2023-04-15T06:56:51;30.27;;;16.40;;
75823;SDS011;64457;51.976;9.834;2023-04-15T06:59:18;29.00;;;14.37;;
75823;SDS011;64457;51.976;9.834;2023-04-15T07:01:46;24.90;;;12.50;;
75823;SDS011;64457;51.976;9.834;2023-04-15T07:04:14;28.10;;;13.73;;
75823;SDS011;64457;51.976;9.834;2023-04-15T07:06:44;28.03;;;13.30;;
75823;SDS011;64457;51.976;9.834;2023-04-15T07:09:12;28.70;;;14.10;;
75823;SDS011;64457;51.976;9.834;2023-04-15T07:11:42;26.17;;;13.33;;
75823;SDS011;64457;51.976;9.834;2023-04-15T07:14:09;26.07;;;12.80;;
75823;SDS011;64457;51.976;9.834;2023-04-15T07:16:37;29.83;;;12.70;;
75823;SDS011;64457;51.976;9.834;2023-04-15T07:19:06;24.60;;;12.67;;
75823;SDS011;64457;51.976;9.834;2023-04-15T07:21:34;27.77;;;14.13;;
75823;SDS011;64457;51.976;9.834;2023-04-15T07:24:05;28.80;;;14.57;;
75823;SDS011;64457;51.976;9.834;2023-04-15T07:26:34;29.70;;;14.40;;
75823;SDS011;64457;51.976;9.834;2023-04-15T07:29:02;27.37;;;14.03;;
75823;SDS011;64457;51.976;9.834;2023-04-15T07:31:30;31.70;;;14.30;;
75823;SDS011;64457;51.976;9.834;2023-04-15T07:33:58;28.80;;;13.80;;
75823;SDS011;64457;51.976;9.834;2023-04-15T07:36:34;27.00;;;13.50;;
75823;SDS011;64457;51.976;9.834;2023-04-15T07:39:12;25.90;;;13.80;;
75823;SDS011;64457;51.976;9.834;2023-04-15T07:41:40;28.30;;;13.30;;
75823;SDS011;64457;51.976;9.834;2023-04-15T07:44:08;29.40;;;13.47;;
75823;SDS011;64457;51.976;9.834;2023-04-15T07:46:39;26.73;;;12.80;;
75823;SDS011;64457;51.976;9.834;2023-04-15T07:49:10;24.67;;;12.30;;
75823;SDS011;64457;51.976;9.834;2023-04-15T07:51:43;23.67;;;11.90;;
75823;SDS011;64457;51.976;9.834;2023-04-15T07:54:31;22.50;;;11.67;;
75823;SDS011;64457;51.976;9.834;2023-04-15T07:56:59;19.47;;;10.20;;
75823;SDS011;64457;51.976;9.834;2023-04-15T07:59:28;21.20;;;10.50;;
75823;SDS011;64457;51.976;9.834;2023-04-15T08:02:01;22.10;;;10.83;;
75823;SDS011;64457;51.976;9.834;2023-04-15T08:04:30;20.00;;;9.97;;
75823;SDS011;64457;51.976;9.834;2023-04-15T08:07:09;22.17;;;10.13;;
75823;SDS011;64457;51.976;9.834;2023-04-15T08:09:39;22.23;;;10.50;;
75823;SDS011;64457;51.976;9.834;2023-04-15T08:12:08;21.83;;;10.80;;
75823;SDS011;64457;51.976;9.834;2023-04-15T08:14:37;21.60;;;10.57;;
75823;SDS011;64457;51.976;9.834;2023-04-15T08:17:07;19.60;;;9.60;;
75823;SDS011;64457;51.976;9.834;2023-04-15T08:19:41;20.57;;;10.60;;
75823;SDS011;64457;51.976;9.834;2023-04-15T08:22:14;19.27;;;10.10;;
75823;SDS011;64457;51.976;9.834;2023-04-15T08:24:44;18.47;;;9.13;;
75823;SDS011;64457;51.976;9.834;2023-04-15T08:27:12;16.40;;;7.60;;
75823;SDS011;64457;51.976;9.834;2023-04-15T08:29:41;17.03;;;7.70;;
75823;SDS011;64457;51.976;9.834;2023-04-15T08:32:10;14.73;;;7.33;;
75823;SDS011;64457;51.976;9.834;2023-04-15T08:34:39;15.20;;;7.40;;
75823;SDS011;64457;51.976;9.834;2023-04-15T08:37:07;15.37;;;7.17;;
75823;SDS011;64457;51.976;9.834;2023-04-15T08:39:37;14.20;;;6.43;;
75823;SDS011;64457;51.976;9.834;2023-04-15T08:42:09;16.13;;;6.80;;
75823;SDS011;64457;51.976;9.834;2023-04-15T08:44:42;14.30;;;6.80;;
75823;SDS011;64457;51.976;9.834;2023-04-15T08:47:14;13.10;;;6.50;;
75823;SDS011;64457;51.976;9.834;2023-04-15T08:49:49;12.47;;;6.20;;
75823;SDS011;64457;51.976;9.834;2023-04-15T08:52:23;13.60;;;6.40;;
75823;SDS011;64457;51.976;9.834;2023-04-15T08:54:56;12.63;;;5.93;;
75823;SDS011;64457;51.976;9.834;2023-04-15T08:57:28;12.80;;;5.60;;
75823;SDS011;64457;51.976;9.834;2023-04-15T08:59:56;11.00;;;5.10;;
75823;SDS011;64457;51.976;9.834;2023-04-15T09:02:27;10.80;;;5.27;;
75823;SDS011;64457;51.976;9.834;2023-04-15T09:04:56;12.13;;;6.10;;
75823;SDS011;64457;51.976;9.834;2023-04-15T09:07:29;11.23;;;5.13;;
75823;SDS011;64457;51.976;9.834;2023-04-15T09:10:04;11.00;;;5.20;;
75823;SDS011;64457;51.976;9.834;2023-04-15T09:12:36;10.60;;;5.00;;
75823;SDS011;64457;51.976;9.834;2023-04-15T09:15:04;9.93;;;4.50;;
75823;SDS011;64457;51.976;9.834;2023-04-15T09:17:40;11.37;;;4.10;;
75823;SDS011;64457;51.976;9.834;2023-04-15T09:20:10;11.00;;;4.73;;
75823;SDS011;64457;51.976;9.834;2023-04-15T09:22:41;10.93;;;5.10;;
75823;SDS011;64457;51.976;9.834;2023-04-15T09:25:26;10.47;;;5.20;;
75823;SDS011;64457;51.976;9.834;2023-04-15T09:27:58;10.30;;;4.63;;
75823;SDS011;64457;51.976;9.834;2023-04-15T09:30:27;10.60;;;5.00;;
75823;SDS011;64457;51.976;9.834;2023-04-15T09:32:56;10.83;;;5.23;;
75823;SDS011;64457;51.976;9.834;2023-04-15T09:35:29;11.23;;;4.97;;
75823;SDS011;64457;51.976;9.834;2023-04-15T09:38:01;11.20;;;4.40;;
75823;SDS011;64457;51.976;9.834;2023-04-15T09:40:32;10.83;;;5.13;;
75823;SDS011;64457;51.976;9.834;2023-04-15T09:43:12;10.20;;;4.50;;
75823;SDS011;64457;51.976;9.834;2023-04-15T09:45:46;11.37;;;5.30;;
75823;SDS011;64457;51.976;9.834;2023-04-15T09:48:16;11.10;;;4.93;;
75823;SDS011;64457;51.976;9.834;2023-04-15T09:50:47;10.03;;;4.60;;
75823;SDS011;64457;51.976;9.834;2023-04-15T09:53:19;10.37;;;4.70;;
75823;SDS011;64457;51.976;9.834;2023-04-15T09:55:48;12.00;;;5.10;;
75823;SDS011;64457;51.976;9.834;2023-04-15T09:58:19;10.73;;;5.00;;
75823;SDS011;64457;51.976;9.834;2023-04-15T10:00:48;11.47;;;5.10;;
75823;SDS011;64457;51.976;9.834;2023-04-15T10:03:18;9.90;;;4.50;;
75823;SDS011;64457;51.976;9.834;2023-04-15T10:05:57;10.90;;;4.90;;
75823;SDS011;64457;51.976;9.834;2023-04-15T10:08:26;9.97;;;4.40;;
75823;SDS011;64457;51.976;9.834;2023-04-15T10:11:00;11.13;;;5.17;;
75823;SDS011;64457;51.976;9.834;2023-04-15T10:13:34;10.90;;;4.83;;
75823;SDS011;64457;51.976;9.834;2023-04-15T10:16:04;10.37;;;4.87;;
75823;SDS011;64457;51.976;9.834;2023-04-15T10:18:39;11.00;;;4.90;;
75823;SDS011;64457;51.976;9.834;2023-04-15T10:21:12;11.53;;;5.43;;
75823;SDS011;64457;51.976;9.834;2023-04-15T10:23:43;10.73;;;5.20;;
75823;SDS011;64457;51.976;9.834;2023-04-15T10:26:12;10.30;;;4.90;;
75823;SDS011;64457;51.976;9.834;2023-04-15T10:28:45;10.90;;;5.33;;
75823;SDS011;64457;51.976;9.834;2023-04-15T10:31:13;12.03;;;5.57;;
75823;SDS011;64457;51.976;9.834;2023-04-15T10:33:50;14.07;;;6.33;;
75823;SDS011;64457;51.976;9.834;2023-04-15T10:36:26;13.30;;;6.60;;
75823;SDS011;64457;51.976;9.834;2023-04-15T10:38:53;13.13;;;6.33;;
75823;SDS011;64457;51.976;9.834;2023-04-15T10:41:24;13.47;;;6.70;;
75823;SDS011;64457;51.976;9.834;2023-04-15T10:44:01;14.80;;;7.53;;
75823;SDS011;64457;51.976;9.834;2023-04-15T10:46:36;13.90;;;6.77;;
75823;SDS011;64457;51.976;9.834;2023-04-15T10:49:10;14.13;;;7.10;;
75823;SDS011;64457;51.976;9.834;2023-04-15T10:51:41;13.47;;;6.50;;
75823;SDS011;64457;51.976;9.834;2023-04-15T10:54:29;16.70;;;7.53;;
75823;SDS011;64457;51.976;9.834;2023-04-15T10:57:07;17.43;;;8.00;;
75823;SDS011;64457;51.976;9.834;2023-04-15T11:00:00;17.30;;;7.60;;
75823;SDS011;64457;51.976;9.834;2023-04-15T11:02:40;16.87;;;7.63;;
75823;SDS011;64457;51.976;9.834;2023-04-15T11:05:15;15.60;;;8.03;;
75823;SDS011;64457;51.976;9.834;2023-04-15T11:07:55;16.33;;;7.97;;
75823;SDS011;64457;51.976;9.834;2023-04-15T11:13:20;19.80;;;8.97;;
75823;SDS011;64457;51.976;9.834;2023-04-15T11:15:54;17.97;;;8.90;;
75823;SDS011;64457;51.976;9.834;2023-04-15T11:18:31;17.40;;;8.60;;
75823;SDS011;64457;51.976;9.834;2023-04-15T11:21:01;17.17;;;7.97;;
75823;SDS011;64457;51.976;9.834;2023-04-15T11:23:36;18.90;;;9.37;;
75823;SDS011;64457;51.976;9.834;2023-04-15T11:26:09;18.23;;;8.70;;
75823;SDS011;64457;51.976;9.834;2023-04-15T11:28:38;20.97;;;9.60;;
75823;SDS011;64457;51.976;9.834;2023-04-15T11:31:20;21.87;;;9.60;;
75823;SDS011;64457;51.976;9.834;2023-04-15T11:33:52;23.47;;;10.40;;
75823;SDS011;64457;51.976;9.834;2023-04-15T11:36:25;22.47;;;10.53;;
75823;SDS011;64457;51.976;9.834;2023-04-15T11:38:56;21.33;;;10.60;;
75823;SDS011;64457;51.976;9.834;2023-04-15T11:41:28;22.80;;;10.43;;
75823;SDS011;64457;51.976;9.834;2023-04-15T11:44:14;23.03;;;10.70;;
75823;SDS011;64457;51.976;9.834;2023-04-15T11:46:48;21.00;;;10.43;;
75823;SDS011;64457;51.976;9.834;2023-04-15T11:49:27;24.83;;;11.67;;
75823;SDS011;64457;51.976;9.834;2023-04-15T11:51:58;25.47;;;11.60;;
75823;SDS011;64457;51.976;9.834;2023-04-15T11:54:26;30.07;;;12.50;;
75823;SDS011;64457;51.976;9.834;2023-04-15T11:56:53;24.10;;;12.10;;
75823;SDS011;64457;51.976;9.834;2023-04-15T11:59:21;28.17;;;12.07;;
75823;SDS011;64457;51.976;9.834;2023-04-15T12:01:50;26.67;;;12.40;;
75823;SDS011;64457;51.976;9.834;2023-04-15T12:04:19;29.53;;;12.83;;
75823;SDS011;64457;51.976;9.834;2023-04-15T12:06:48;31.97;;;14.30;;
75823;SDS011;64457;51.976;9.834;2023-04-15T12:09:15;32.57;;;14.40;;
75823;SDS011;64457;51.976;9.834;2023-04-15T12:11:45;33.53;;;13.43;;
75823;SDS011;64457;51.976;9.834;2023-04-15T12:14:20;34.00;;;13.67;;
75823;SDS011;64457;51.976;9.834;2023-04-15T12:16:55;32.23;;;14.60;;
75823;SDS011;64457;51.976;9.834;2023-04-15T12:19:26;32.53;;;14.30;;
75823;SDS011;64457;51.976;9.834;2023-04-15T12:21:57;32.83;;;15.63;;
75823;SDS011;64457;51.976;9.834;2023-04-15T12:24:30;35.30;;;15.57;;
75823;SDS011;64457;51.976;9.834;2023-04-15T12:27:01;30.83;;;14.60;;
75823;SDS011;64457;51.976;9.834;2023-04-15T12:29:31;38.57;;;16.33;;
75823;SDS011;64457;51.976;9.834;2023-04-15T12:32:07;36.23;;;15.20;;
75823;SDS011;64457;51.976;9.834;2023-04-15T12:34:41;37.10;;;16.60;;
75823;SDS011;64457;51.976;9.834;2023-04-15T12:37:12;40.83;;;16.50;;
75823;SDS011;64457;51.976;9.834;2023-04-15T12:39:43;37.00;;;16.70;;
75823;SDS011;64457;51.976;9.834;2023-04-15T12:42:13;41.93;;;17.60;;
75823;SDS011;64457;51.976;9.834;2023-04-15T12:44:42;41.00;;;17.43;;
75823;SDS011;64457;51.976;9.834;2023-04-15T12:47:13;38.50;;;16.77;;
75823;SDS011;64457;51.976;9.834;2023-04-15T12:49:41;50.87;;;20.13;;
75823;SDS011;64457;51.976;9.834;2023-04-15T12:52:10;47.23;;;19.97;;
75823;SDS011;64457;51.976;9.834;2023-04-15T12:54:39;55.27;;;19.90;;
75823;SDS011;64457;51.976;9.834;2023-04-15T12:57:07;49.00;;;20.07;;
75823;SDS011;64457;51.976;9.834;2023-04-15T12:59:35;48.10;;;20.10;;
75823;SDS011;64457;51.976;9.834;2023-04-15T13:02:04;46.27;;;20.70;;
75823;SDS011;64457;51.976;9.834;2023-04-15T13:04:33;54.27;;;22.20;;
75823;SDS011;64457;51.976;9.834;2023-04-15T13:07:02;55.03;;;24.10;;
75823;SDS011;64457;51.976;9.834;2023-04-15T13:09:30;57.07;;;23.33;;
75823;SDS011;64457;51.976;9.834;2023-04-15T13:11:57;56.63;;;23.80;;
75823;SDS011;64457;51.976;9.834;2023-04-15T13:14:34;56.20;;;24.60;;
75823;SDS011;64457;51.976;9.834;2023-04-15T13:17:02;60.17;;;25.47;;
75823;SDS011;64457;51.976;9.834;2023-04-15T13:19:36;66.73;;;26.20;;
75823;SDS011;64457;51.976;9.834;2023-04-15T13:22:04;59.50;;;24.37;;
75823;SDS011;64457;51.976;9.834;2023-04-15T13:24:33;60.93;;;25.57;;
75823;SDS011;64457;51.976;9.834;2023-04-15T13:27:01;68.30;;;27.23;;
75823;SDS011;64457;51.976;9.834;2023-04-15T13:29:30;67.17;;;26.97;;
75823;SDS011;64457;51.976;9.834;2023-04-15T13:31:58;66.77;;;27.23;;
75823;SDS011;64457;51.976;9.834;2023-04-15T13:34:26;67.97;;;27.40;;
75823;SDS011;64457;51.976;9.834;2023-04-15T13:36:59;67.33;;;26.57;;
75823;SDS011;64457;51.976;9.834;2023-04-15T13:39:33;67.20;;;25.97;;
75823;SDS011;64457;51.976;9.834;2023-04-15T13:42:01;70.77;;;27.90;;
75823;SDS011;64457;51.976;9.834;2023-04-15T13:44:34;66.30;;;26.20;;
75823;SDS011;64457;51.976;9.834;2023-04-15T13:47:04;67.07;;;26.90;;
75823;SDS011;64457;51.976;9.834;2023-04-15T13:49:33;70.30;;;27.17;;
75823;SDS011;64457;51.976;9.834;2023-04-15T13:52:02;66.73;;;26.00;;
75823;SDS011;64457;51.976;9.834;2023-04-15T13:54:30;65.90;;;26.60;;
75823;SDS011;64457;51.976;9.834;2023-04-15T13:57:03;62.00;;;25.97;;
75823;SDS011;64457;51.976;9.834;2023-04-15T13:59:32;65.37;;;26.60;;
75823;SDS011;64457;51.976;9.834;2023-04-15T14:02:00;59.57;;;25.47;;
75823;SDS011;64457;51.976;9.834;2023-04-15T14:04:31;60.00;;;25.73;;
75823;SDS011;64457;51.976;9.834;2023-04-15T14:06:59;61.70;;;26.20;;
75823;SDS011;64457;51.976;9.834;2023-04-15T14:09:29;63.47;;;25.57;;
75823;SDS011;64457;51.976;9.834;2023-04-15T14:11:57;62.43;;;25.70;;
75823;SDS011;64457;51.976;9.834;2023-04-15T14:14:25;70.50;;;28.77;;
75823;SDS011;64457;51.976;9.834;2023-04-15T14:16:54;74.57;;;29.70;;
75823;SDS011;64457;51.976;9.834;2023-04-15T14:19:23;61.67;;;28.40;;
75823;SDS011;64457;51.976;9.834;2023-04-15T14:21:51;72.80;;;30.10;;
75823;SDS011;64457;51.976;9.834;2023-04-15T14:24:25;81.20;;;30.63;;
75823;SDS011;64457;51.976;9.834;2023-04-15T14:26:57;79.20;;;31.57;;
75823;SDS011;64457;51.976;9.834;2023-04-15T14:29:26;71.47;;;30.90;;
75823;SDS011;64457;51.976;9.834;2023-04-15T14:31:56;73.60;;;31.10;;
75823;SDS011;64457;51.976;9.834;2023-04-15T14:34:29;79.53;;;31.90;;
75823;SDS011;64457;51.976;9.834;2023-04-15T14:36:59;81.10;;;33.57;;
75823;SDS011;64457;51.976;9.834;2023-04-15T14:39:28;86.67;;;34.20;;
75823;SDS011;64457;51.976;9.834;2023-04-15T14:41:56;77.67;;;33.20;;
75823;SDS011;64457;51.976;9.834;2023-04-15T14:44:25;77.10;;;32.27;;
75823;SDS011;64457;51.976;9.834;2023-04-15T14:46:53;72.90;;;32.93;;
75823;SDS011;64457;51.976;9.834;2023-04-15T14:49:23;91.17;;;37.60;;
75823;SDS011;64457;51.976;9.834;2023-04-15T14:51:54;81.37;;;36.23;;
75823;SDS011;64457;51.976;9.834;2023-04-15T14:54:24;76.43;;;35.10;;
75823;SDS011;64457;51.976;9.834;2023-04-15T14:56:55;83.50;;;35.40;;
75823;SDS011;64457;51.976;9.834;2023-04-15T14:59:33;75.00;;;35.27;;
75823;SDS011;64457;51.976;9.834;2023-04-15T15:02:13;87.83;;;35.07;;
75823;SDS011;64457;51.976;9.834;2023-04-15T15:04:49;82.97;;;36.87;;
75823;SDS011;64457;51.976;9.834;2023-04-15T15:07:17;77.87;;;33.97;;
75823;SDS011;64457;51.976;9.834;2023-04-15T15:09:46;81.40;;;35.03;;
75823;SDS011;64457;51.976;9.834;2023-04-15T15:12:19;72.87;;;34.40;;
75823;SDS011;64457;51.976;9.834;2023-04-15T15:14:47;74.90;;;35.90;;
75823;SDS011;64457;51.976;9.834;2023-04-15T15:17:17;73.20;;;34.50;;
75823;SDS011;64457;51.976;9.834;2023-04-15T15:19:44;72.30;;;35.33;;
75823;SDS011;64457;51.976;9.834;2023-04-15T15:22:13;86.37;;;42.20;;
75823;SDS011;64457;51.976;9.834;2023-04-15T15:24:41;66.20;;;33.93;;
75823;SDS011;64457;51.976;9.834;2023-04-15T15:27:10;67.50;;;33.53;;
75823;SDS011;64457;51.976;9.834;2023-04-15T15:29:39;68.40;;;34.10;;
75823;SDS011;64457;51.976;9.834;2023-04-15T15:32:07;60.77;;;31.13;;
75823;SDS011;64457;51.976;9.834;2023-04-15T15:34:35;62.00;;;30.90;;
75823;SDS011;64457;51.976;9.834;2023-04-15T15:37:04;62.40;;;30.90;;
75823;SDS011;64457;51.976;9.834;2023-04-15T15:39:32;62.37;;;32.30;;
75823;SDS011;64457;51.976;9.834;2023-04-15T15:42:39;54.40;;;28.73;;
75823;SDS011;64457;51.976;9.834;2023-04-15T15:45:51;62.23;;;28.23;;
75823;SDS011;64457;51.976;9.834;2023-04-15T15:48:20;56.67;;;28.13;;
75823;SDS011;64457;51.976;9.834;2023-04-15T15:50:48;54.30;;;28.73;;